createdAt,value
2022-12-17T00:00:14.545Z,3.20
2022-12-17T00:02:59.879Z,3.60
2022-12-17T00:05:45.265Z,4.20
2022-12-17T00:08:30.635Z,4.40
2022-12-17T00:11:17.243Z,4.37
2022-12-17T00:14:02.922Z,4.40
2022-12-17T00:16:47.962Z,5.53
2022-12-17T00:19:33.407Z,5.47
2022-12-17T00:22:18.551Z,7.30
2022-12-17T00:25:04.041Z,7.27
2022-12-17T00:27:49.318Z,6.60
2022-12-17T00:30:34.527Z,7.87
2022-12-17T00:33:19.491Z,8.10
2022-12-17T00:36:12.511Z,7.17
2022-12-17T00:38:58.131Z,6.37
2022-12-17T00:41:43.599Z,8.33
2022-12-17T00:44:28.937Z,9.03
2022-12-17T00:47:14.510Z,9.33
2022-12-17T00:49:59.808Z,7.80
2022-12-17T00:52:44.833Z,8.07
2022-12-17T00:55:30.055Z,7.90
2022-12-17T00:58:16.349Z,8.03
2022-12-17T01:01:01.700Z,8.13
2022-12-17T01:03:47.198Z,8.33
2022-12-17T01:06:32.544Z,7.33
2022-12-17T01:09:17.871Z,9.33
2022-12-17T01:12:03.053Z,8.57
2022-12-17T01:14:48.434Z,8.90
2022-12-17T01:17:33.925Z,8.60
2022-12-17T01:20:19.124Z,7.40
2022-12-17T01:23:04.806Z,9.67
2022-12-17T01:25:50.195Z,10.13
2022-12-17T01:28:41.128Z,8.13
2022-12-17T01:31:31.470Z,8.50
2022-12-17T01:34:20.000Z,8.50
2022-12-17T01:37:05.184Z,7.60
2022-12-17T01:39:50.039Z,9.23
2022-12-17T01:42:35.568Z,9.30
2022-12-17T01:45:22.421Z,8.13
2022-12-17T01:48:23.657Z,10.17
2022-12-17T01:51:13.556Z,7.77
2022-12-17T01:54:16.422Z,9.10
2022-12-17T01:57:02.468Z,8.90
2022-12-17T01:59:59.784Z,10.77
2022-12-17T02:02:45.228Z,7.63
2022-12-17T02:05:30.471Z,9.43
2022-12-17T02:08:42.600Z,7.70
2022-12-17T02:11:45.035Z,8.03
2022-12-17T02:15:00.552Z,7.60
2022-12-17T02:17:52.868Z,7.53
2022-12-17T02:20:43.974Z,9.30
2022-12-17T02:23:42.275Z,8.20
2022-12-17T02:26:32.058Z,8.53
2022-12-17T02:29:18.979Z,7.97
2022-12-17T02:32:04.882Z,8.00
2022-12-17T02:34:50.083Z,8.20
2022-12-17T02:37:35.721Z,9.40
2022-12-17T02:40:20.844Z,7.40
2022-12-17T02:43:07.603Z,7.77
2022-12-17T02:45:53.245Z,7.73
2022-12-17T02:48:38.922Z,7.80
2022-12-17T02:51:24.678Z,7.77
2022-12-17T02:54:12.275Z,8.10
2022-12-17T02:56:57.446Z,7.73
2022-12-17T02:59:42.633Z,7.03
2022-12-17T03:02:28.179Z,6.53
2022-12-17T03:05:42.916Z,8.90
2022-12-17T03:08:18.916Z,7.97
2022-12-17T03:11:04.301Z,8.00
2022-12-17T03:13:49.474Z,10.30
2022-12-17T03:16:37.897Z,7.83
2022-12-17T03:19:23.322Z,8.67
2022-12-17T03:22:08.835Z,8.17
2022-12-17T03:24:53.987Z,6.83
2022-12-17T03:27:39.443Z,7.50
2022-12-17T03:30:25.071Z,7.83
2022-12-17T03:33:10.334Z,7.40
2022-12-17T03:35:55.939Z,8.10
2022-12-17T03:38:41.294Z,6.13
2022-12-17T03:41:26.229Z,6.73
2022-12-17T03:44:11.628Z,7.67
2022-12-17T03:46:56.595Z,8.33
2022-12-17T03:49:41.516Z,8.67
2022-12-17T03:52:26.947Z,9.00
2022-12-17T03:55:12.141Z,9.83
2022-12-17T03:57:57.266Z,8.53
2022-12-17T04:00:42.111Z,9.70
2022-12-17T04:03:27.671Z,8.37
2022-12-17T04:06:12.986Z,7.00
2022-12-17T04:08:58.027Z,8.00
2022-12-17T04:11:43.472Z,8.60
2022-12-17T04:14:28.540Z,8.70
2022-12-17T04:17:13.809Z,8.60
2022-12-17T04:19:59.232Z,8.90
2022-12-17T04:22:44.815Z,9.80
2022-12-17T04:25:30.074Z,9.20
2022-12-17T04:28:15.685Z,9.17
2022-12-17T04:31:01.073Z,8.43
2022-12-17T04:33:46.461Z,8.30
2022-12-17T04:36:31.815Z,9.10
2022-12-17T04:39:16.653Z,8.00
2022-12-17T04:42:01.898Z,8.67
2022-12-17T04:44:47.264Z,6.90
2022-12-17T04:47:32.483Z,8.90
2022-12-17T04:50:17.861Z,7.80
2022-12-17T04:53:03.365Z,7.80
2022-12-17T04:55:49.014Z,7.13
2022-12-17T04:58:34.327Z,7.93
2022-12-17T05:01:19.940Z,7.80
2022-12-17T05:04:04.894Z,9.80
2022-12-17T05:06:50.414Z,10.97
2022-12-17T05:09:35.874Z,11.40
2022-12-17T05:12:21.332Z,11.70
2022-12-17T05:15:06.653Z,9.60
2022-12-17T05:17:51.881Z,8.53
2022-12-17T05:20:37.249Z,8.10
2022-12-17T05:23:23.972Z,9.60
2022-12-17T05:26:14.423Z,8.57
2022-12-17T05:28:59.266Z,10.80
2022-12-17T05:31:44.276Z,14.20
2022-12-17T05:34:29.404Z,8.17
2022-12-17T05:37:14.573Z,8.00
2022-12-17T05:39:59.536Z,12.83
2022-12-17T05:42:44.271Z,10.50
2022-12-17T05:45:29.421Z,10.53
2022-12-17T05:48:17.500Z,14.63
2022-12-17T05:51:07.421Z,12.47
2022-12-17T05:53:52.814Z,9.53
2022-12-17T05:56:38.096Z,7.37
2022-12-17T05:59:23.392Z,8.70
2022-12-17T06:02:08.616Z,7.63
2022-12-17T06:04:57.455Z,11.03
2022-12-17T06:07:45.525Z,11.03
2022-12-17T06:10:30.427Z,9.77
2022-12-17T06:13:16.391Z,10.17
2022-12-17T06:16:01.832Z,10.83
2022-12-17T06:18:46.847Z,12.50
2022-12-17T06:21:31.765Z,10.87
2022-12-17T06:24:21.117Z,8.77
2022-12-17T06:27:05.957Z,7.20
2022-12-17T06:29:51.228Z,7.20
2022-12-17T06:32:36.438Z,15.90
2022-12-17T06:35:21.983Z,9.03
2022-12-17T06:38:06.814Z,8.37
2022-12-17T06:40:51.817Z,7.67
2022-12-17T06:43:37.970Z,7.40
2022-12-17T06:46:23.611Z,7.67
2022-12-17T06:49:08.823Z,8.40
2022-12-17T06:51:54.197Z,8.13
2022-12-17T06:54:39.345Z,6.70
2022-12-17T06:57:24.940Z,5.67
2022-12-17T07:00:10.862Z,6.60
2022-12-17T07:03:00.300Z,7.00
2022-12-17T07:05:46.244Z,6.27
2022-12-17T07:08:31.815Z,5.93
2022-12-17T07:11:20.987Z,7.47
2022-12-17T07:14:06.265Z,6.27
2022-12-17T07:16:51.254Z,7.33
2022-12-17T07:19:36.102Z,7.13
2022-12-17T07:22:21.085Z,7.43
2022-12-17T07:25:06.087Z,7.10
2022-12-17T07:27:50.908Z,6.80
2022-12-17T07:30:40.894Z,7.50
2022-12-17T07:33:28.610Z,8.27
2022-12-17T07:36:15.085Z,9.00
2022-12-17T07:39:00.169Z,8.43
2022-12-17T07:41:45.087Z,7.20
2022-12-17T07:44:29.892Z,7.03
2022-12-17T07:47:15.347Z,6.93
2022-12-17T07:50:00.991Z,7.17
2022-12-17T07:52:46.421Z,6.70
2022-12-17T07:55:31.809Z,7.73
2022-12-17T07:58:18.918Z,7.60
2022-12-17T08:01:04.441Z,9.23
2022-12-17T08:03:50.155Z,10.30
2022-12-17T08:06:35.855Z,9.00
2022-12-17T08:09:21.068Z,12.43
2022-12-17T08:12:06.258Z,11.20
2022-12-17T08:14:51.759Z,12.27
2022-12-17T08:17:37.329Z,11.80
2022-12-17T08:20:23.246Z,11.00
2022-12-17T08:23:08.855Z,11.47
2022-12-17T08:25:54.061Z,10.20
2022-12-17T08:28:50.447Z,8.90
2022-12-17T08:31:36.453Z,8.77
2022-12-17T08:34:22.195Z,9.60
2022-12-17T08:37:07.357Z,9.40
2022-12-17T08:39:52.617Z,10.47
2022-12-17T08:42:38.240Z,7.77
2022-12-17T08:45:24.248Z,8.20
2022-12-17T08:48:09.712Z,6.13
2022-12-17T08:50:54.887Z,7.07
2022-12-17T08:53:40.793Z,6.73
2022-12-17T08:56:26.517Z,7.33
2022-12-17T08:59:11.900Z,7.73
2022-12-17T09:01:57.414Z,6.37
2022-12-17T09:04:42.897Z,5.67
2022-12-17T09:07:28.287Z,5.73
2022-12-17T09:10:13.987Z,6.87
2022-12-17T09:13:04.358Z,6.37
2022-12-17T09:15:50.267Z,6.63
2022-12-17T09:18:39.706Z,7.50
2022-12-17T09:21:26.240Z,7.80
2022-12-17T09:24:11.396Z,5.60
2022-12-17T09:26:56.491Z,6.60
2022-12-17T09:29:41.887Z,7.00
2022-12-17T09:32:27.168Z,7.00
2022-12-17T09:35:12.398Z,6.57
2022-12-17T09:37:57.607Z,6.57
2022-12-17T09:40:43.586Z,7.00
2022-12-17T09:44:10.086Z,7.27
2022-12-17T09:47:03.446Z,7.50
2022-12-17T09:49:48.915Z,7.93
2022-12-17T09:52:45.198Z,8.23
2022-12-17T09:55:39.138Z,8.50
2022-12-17T09:58:25.431Z,8.20
2022-12-17T10:01:11.603Z,7.17
2022-12-17T10:04:04.820Z,6.97
2022-12-17T10:06:50.587Z,6.30
2022-12-17T10:09:37.455Z,7.63
2022-12-17T10:12:35.875Z,7.17
2022-12-17T10:15:21.171Z,8.97
2022-12-17T10:18:06.345Z,9.90
2022-12-17T10:20:58.807Z,9.40
2022-12-17T10:23:49.041Z,7.60
2022-12-17T10:26:43.129Z,7.60
2022-12-17T10:29:45.541Z,7.40
2022-12-17T10:32:35.892Z,6.73
2022-12-17T10:35:36.177Z,7.10
2022-12-17T10:38:32.546Z,7.20
2022-12-17T10:41:17.640Z,5.80
2022-12-17T10:44:03.329Z,6.37
2022-12-17T10:46:50.385Z,6.13
2022-12-17T10:49:37.847Z,4.90
2022-12-17T10:52:37.969Z,6.80
2022-12-17T10:55:24.511Z,6.03
2022-12-17T10:58:11.242Z,5.90
2022-12-17T11:00:58.298Z,5.23
2022-12-17T11:03:47.537Z,5.13
2022-12-17T11:06:42.219Z,6.60
2022-12-17T11:09:51.477Z,6.40
2022-12-17T11:12:38.824Z,5.90
2022-12-17T11:16:05.049Z,6.30
2022-12-17T11:19:13.914Z,7.03
2022-12-17T11:22:02.893Z,5.50
2022-12-17T11:24:53.725Z,3.47
2022-12-17T11:27:42.338Z,3.40
2022-12-17T11:30:34.556Z,3.27
2022-12-17T11:33:28.611Z,4.40
2022-12-17T11:36:35.177Z,4.17
2022-12-17T11:39:45.771Z,4.10
2022-12-17T11:42:37.694Z,4.00
2022-12-17T11:45:49.193Z,4.10
2022-12-17T11:48:49.411Z,4.63
2022-12-17T11:51:47.647Z,4.13
2022-12-17T11:54:44.526Z,2.97
2022-12-17T11:57:41.167Z,2.13
2022-12-17T12:00:35.990Z,2.43
2022-12-17T12:03:27.431Z,2.27
2022-12-17T12:06:15.150Z,2.60
2022-12-17T12:09:27.291Z,2.67
2022-12-17T12:12:32.198Z,3.27
2022-12-17T12:15:40.394Z,2.50
2022-12-17T12:18:43.712Z,3.30
2022-12-17T12:21:54.672Z,3.30
2022-12-17T12:25:16.920Z,2.67
2022-12-17T12:28:29.968Z,2.60
2022-12-17T12:31:34.256Z,2.40
2022-12-17T12:34:21.876Z,2.30
2022-12-17T12:37:08.043Z,2.87
2022-12-17T12:39:59.240Z,1.73
2022-12-17T12:43:07.352Z,2.10
2022-12-17T12:46:19.015Z,2.17
2022-12-17T12:49:15.967Z,2.67
2022-12-17T12:52:01.646Z,2.10
2022-12-17T12:55:05.382Z,2.50
2022-12-17T12:57:58.227Z,2.53
2022-12-17T13:00:49.580Z,2.47
2022-12-17T13:03:41.783Z,2.57
2022-12-17T13:06:08.806Z,2.77
2022-12-17T13:08:36.197Z,2.40
2022-12-17T13:11:38.928Z,2.40
2022-12-17T13:14:19.847Z,2.63
2022-12-17T13:16:53.840Z,2.40
2022-12-17T13:19:31.977Z,3.10
2022-12-17T13:22:17.771Z,2.73
2022-12-17T13:24:52.784Z,2.80
2022-12-17T13:27:34.928Z,2.93
2022-12-17T13:30:29.436Z,4.40
2022-12-17T13:33:02.286Z,3.23
2022-12-17T13:35:41.308Z,3.07
2022-12-17T13:38:43.677Z,4.57
2022-12-17T13:41:13.152Z,5.00
2022-12-17T13:43:49.017Z,5.57
2022-12-17T13:46:26.059Z,6.33
2022-12-17T13:48:54.703Z,5.17
2022-12-17T13:51:22.435Z,5.93
2022-12-17T13:54:00.687Z,6.47
2022-12-17T13:56:36.169Z,5.60
2022-12-17T13:59:09.089Z,5.40
2022-12-17T14:01:49.228Z,5.73
2022-12-17T14:04:27.433Z,5.20
2022-12-17T14:06:59.397Z,4.80
2022-12-17T14:09:39.489Z,4.93
2022-12-17T14:12:22.346Z,5.00
2022-12-17T14:14:56.020Z,6.10
2022-12-17T14:17:35.479Z,5.07
2022-12-17T14:20:08.407Z,4.70
2022-12-17T14:22:50.786Z,5.00
2022-12-17T14:25:20.560Z,4.77
2022-12-17T14:27:57.431Z,3.63
2022-12-17T14:30:25.804Z,4.70
2022-12-17T14:32:52.563Z,4.70
2022-12-17T14:35:31.159Z,4.53
2022-12-17T14:37:58.000Z,5.60
2022-12-17T14:40:25.761Z,6.90
2022-12-17T14:42:57.797Z,3.77
2022-12-17T14:45:26.108Z,6.67
2022-12-17T14:48:00.956Z,7.00
2022-12-17T14:50:33.421Z,30.97
2022-12-17T14:53:05.416Z,73.73
2022-12-17T14:55:39.183Z,41.57
2022-12-17T14:58:11.966Z,12.77
2022-12-17T15:00:41.067Z,14.40
2022-12-17T15:03:19.125Z,12.63
2022-12-17T15:05:51.436Z,11.00
2022-12-17T15:08:18.488Z,13.67
2022-12-17T15:10:45.194Z,24.10
2022-12-17T15:13:12.162Z,22.93
2022-12-17T15:15:38.797Z,14.93
2022-12-17T15:18:05.557Z,8.80
2022-12-17T15:20:32.249Z,5.93
2022-12-17T15:22:58.995Z,5.10
2022-12-17T15:25:25.689Z,3.80
2022-12-17T15:27:52.543Z,2.87
2022-12-17T15:30:19.839Z,4.23
2022-12-17T15:32:47.529Z,3.73
2022-12-17T15:35:14.668Z,3.93
2022-12-17T15:37:41.330Z,5.23
2022-12-17T15:40:10.868Z,3.30
2022-12-17T15:42:57.443Z,2.93
2022-12-17T15:45:25.928Z,2.83
2022-12-17T15:47:52.678Z,3.17
2022-12-17T15:50:19.609Z,3.00
2022-12-17T15:52:46.368Z,3.67
2022-12-17T15:55:13.310Z,3.80
2022-12-17T15:57:40.026Z,4.20
2022-12-17T16:00:07.441Z,4.70
2022-12-17T16:02:34.376Z,3.53
2022-12-17T16:05:01.298Z,3.83
2022-12-17T16:07:28.099Z,2.47
2022-12-17T16:09:55.262Z,2.47
2022-12-17T16:12:23.848Z,2.90
2022-12-17T16:14:50.638Z,2.10
2022-12-17T16:17:17.357Z,2.53
2022-12-17T16:19:44.067Z,2.50
2022-12-17T16:22:10.712Z,3.00
2022-12-17T16:24:37.438Z,2.93
2022-12-17T16:27:04.960Z,2.50
2022-12-17T16:29:31.766Z,3.10
2022-12-17T16:31:59.917Z,2.30
2022-12-17T16:34:26.698Z,3.10
2022-12-17T16:36:53.408Z,7.70
2022-12-17T16:39:20.308Z,7.43
2022-12-17T16:41:47.139Z,5.67
2022-12-17T16:44:13.806Z,2.97
2022-12-17T16:46:42.452Z,3.00
2022-12-17T16:49:12.737Z,3.13
2022-12-17T16:51:39.927Z,4.90
2022-12-17T16:54:09.240Z,4.70
2022-12-17T16:56:40.124Z,3.37
2022-12-17T16:59:08.548Z,2.53
2022-12-17T17:01:36.865Z,2.33
2022-12-17T17:04:05.615Z,2.30
2022-12-17T17:06:34.010Z,2.63
2022-12-17T17:09:06.335Z,1.90
2022-12-17T17:11:33.058Z,1.63
2022-12-17T17:14:00.008Z,2.57
2022-12-17T17:16:27.227Z,2.03
2022-12-17T17:18:54.257Z,1.93
2022-12-17T17:21:21.718Z,2.40
2022-12-17T17:23:50.399Z,2.50
2022-12-17T17:26:17.587Z,1.90
2022-12-17T17:28:45.696Z,1.50
2022-12-17T17:31:13.816Z,1.80
2022-12-17T17:33:46.751Z,2.60
2022-12-17T17:36:25.539Z,2.30
2022-12-17T17:38:56.207Z,1.70
2022-12-17T17:41:25.490Z,2.20
2022-12-17T17:44:04.209Z,1.80
2022-12-17T17:46:31.773Z,1.80
2022-12-17T17:49:00.086Z,2.13
2022-12-17T17:52:07.229Z,2.60
2022-12-17T17:54:16.595Z,1.90
2022-12-17T17:56:43.737Z,2.47
2022-12-17T17:59:16.046Z,5.43
2022-12-17T18:01:45.255Z,5.13
2022-12-17T18:04:13.906Z,6.00
2022-12-17T18:06:57.441Z,6.60
2022-12-17T18:09:29.069Z,2.60
2022-12-17T18:11:55.729Z,2.33
2022-12-17T18:14:22.568Z,2.53
2022-12-17T18:16:49.251Z,1.80
2022-12-17T18:19:20.596Z,1.90
2022-12-17T18:21:48.008Z,1.47
2022-12-17T18:24:22.867Z,2.00
2022-12-17T18:26:51.015Z,2.10
2022-12-17T18:29:23.328Z,3.07
2022-12-17T18:31:52.118Z,2.40
2022-12-17T18:34:21.270Z,1.63
2022-12-17T18:36:48.814Z,1.70
2022-12-17T18:39:19.008Z,2.13
2022-12-17T18:42:05.414Z,1.87
2022-12-17T18:44:34.160Z,2.27
2022-12-17T18:47:00.979Z,2.70
2022-12-17T18:49:27.977Z,1.80
2022-12-17T19:00:32.144Z,2.00
2022-12-17T19:02:58.917Z,2.80
2022-12-17T19:05:25.699Z,1.67
2022-12-17T19:07:52.367Z,1.47
2022-12-17T19:10:19.058Z,1.43
2022-12-17T19:12:45.767Z,1.27
2022-12-17T19:15:12.507Z,1.47
2022-12-17T19:17:39.325Z,1.90
2022-12-17T19:20:06.538Z,1.70
2022-12-17T19:22:33.198Z,2.20
2022-12-17T19:24:59.918Z,1.70
2022-12-17T19:27:26.606Z,2.20
2022-12-17T19:29:55.082Z,1.70
2022-12-17T19:32:22.137Z,1.80
2022-12-17T19:34:48.931Z,2.07
2022-12-17T19:37:16.105Z,1.40
2022-12-17T19:39:42.849Z,1.80
2022-12-17T19:42:24.974Z,2.37
2022-12-17T19:44:53.198Z,1.77
2022-12-17T19:47:19.988Z,1.33
2022-12-17T19:49:46.659Z,1.13
2022-12-17T19:52:13.389Z,2.17
2022-12-17T19:54:40.088Z,2.00
2022-12-17T19:57:07.085Z,2.20
2022-12-17T19:59:34.200Z,2.30
2022-12-17T20:02:03.820Z,2.67
2022-12-17T20:04:31.078Z,2.10
2022-12-17T20:06:58.901Z,2.90
2022-12-17T20:09:25.568Z,2.83
2022-12-17T20:11:52.527Z,4.50
2022-12-17T20:14:26.628Z,3.97
2022-12-17T20:16:56.785Z,2.33
2022-12-17T20:19:25.348Z,2.27
2022-12-17T20:21:52.897Z,2.40
2022-12-17T20:24:20.241Z,1.90
2022-12-17T20:26:49.944Z,3.13
2022-12-17T20:29:17.233Z,2.30
2022-12-17T20:31:49.396Z,3.13
2022-12-17T20:34:18.218Z,2.27
2022-12-17T20:36:44.925Z,2.80
2022-12-17T20:39:12.219Z,2.70
2022-12-17T20:41:40.270Z,2.37
2022-12-17T20:44:11.395Z,2.60
2022-12-17T20:46:38.217Z,2.10
2022-12-17T20:49:05.707Z,2.40
2022-12-17T20:51:32.866Z,1.57
2022-12-17T20:54:00.740Z,1.63
2022-12-17T20:56:30.220Z,1.67
2022-12-17T20:59:02.972Z,1.00
2022-12-17T21:01:31.323Z,1.20
2022-12-17T21:03:58.648Z,1.43
2022-12-17T21:06:28.021Z,1.90
2022-12-17T21:08:55.928Z,1.70
2022-12-17T21:11:27.795Z,1.30
2022-12-17T21:13:55.200Z,3.20
2022-12-17T21:16:30.156Z,3.10
2022-12-17T21:18:58.157Z,2.00
2022-12-17T21:21:27.926Z,3.90
2022-12-17T21:23:56.360Z,3.23
2022-12-17T21:26:31.766Z,3.27
2022-12-17T21:28:58.919Z,3.13
2022-12-17T21:31:31.179Z,2.93
2022-12-17T21:34:00.304Z,4.20
2022-12-17T21:36:28.786Z,3.33
2022-12-17T21:38:55.432Z,3.10
2022-12-17T21:41:26.302Z,2.57
2022-12-17T21:43:57.645Z,2.93
2022-12-17T21:46:27.135Z,3.17
2022-12-17T21:48:54.458Z,3.20
2022-12-17T21:51:21.697Z,2.90
2022-12-17T21:53:53.180Z,3.60
2022-12-17T21:56:19.983Z,3.43
2022-12-17T21:58:47.444Z,3.40
2022-12-17T22:01:18.487Z,2.10
2022-12-17T22:03:53.033Z,2.83
2022-12-17T22:06:24.009Z,3.30
2022-12-17T22:08:54.108Z,2.17
2022-12-17T22:11:27.104Z,2.43
2022-12-17T22:14:07.375Z,2.23
2022-12-17T22:16:42.541Z,2.60
2022-12-17T22:19:25.416Z,2.20
2022-12-17T22:21:54.330Z,2.77
2022-12-17T22:24:25.009Z,3.10
2022-12-17T22:26:51.679Z,2.60
2022-12-17T22:29:41.320Z,3.10
2022-12-17T22:32:27.899Z,2.70
2022-12-17T22:35:23.848Z,4.80
2022-12-17T22:40:44.677Z,3.57
2022-12-17T22:44:32.241Z,4.50
2022-12-17T22:44:45.404Z,2.70
2022-12-17T22:46:19.867Z,4.37
2022-12-17T22:48:46.898Z,4.03
2022-12-17T22:51:16.678Z,2.90
2022-12-17T22:53:50.940Z,3.13
2022-12-17T22:56:34.782Z,3.30
2022-12-17T22:59:05.917Z,1.80
2022-12-17T23:01:33.103Z,2.20
2022-12-17T23:04:01.444Z,2.90
2022-12-17T23:06:28.327Z,2.43
2022-12-17T23:08:55.013Z,2.17
2022-12-17T23:11:23.392Z,2.40
2022-12-17T23:13:50.637Z,2.03
2022-12-17T23:16:17.882Z,1.83
2022-12-17T23:18:45.666Z,2.57
2022-12-17T23:21:24.127Z,2.60
2022-12-17T23:23:53.172Z,2.00
2022-12-17T23:26:27.465Z,2.30
2022-12-17T23:28:58.616Z,2.43
2022-12-17T23:31:27.122Z,2.50
2022-12-17T23:33:53.786Z,2.23
2022-12-17T23:36:23.289Z,2.50
2022-12-17T23:38:50.397Z,2.33
2022-12-17T23:41:20.120Z,2.00
2022-12-17T23:43:47.828Z,2.23
2022-12-17T23:46:15.036Z,1.33
2022-12-17T23:48:45.566Z,2.90
2022-12-17T23:51:14.342Z,2.10
2022-12-17T23:53:42.245Z,3.07
2022-12-17T23:56:23.582Z,1.83
2022-12-17T23:58:53.533Z,2.53
